Terminal Aerodrome Forecast
Issued by NWS

Home | Current Version | Previous Version | Text Only | Print | Product List | Glossary On
Versions: 1 2 3 4 5 6 7 8 9 10 11 12 13 14 15 16 17 18 19 20
000
FTUS43 KOAX 110400 AAA
TAFSNY
TAF AMD
KSNY 110441Z 1105/1124 36015KT P6SM VCTS BKN050CB OVC100
     FM110530 VRB05KT P6SM SCT200
     FM111800 04011KT P6SM FEW070=

USA.gov is the U.S. government's official web portal to all federal, state and local government web resources and services.